createdAt,value
2023-05-17T00:00:34.275Z,11.23
2023-05-17T00:03:04.335Z,11.43
2023-05-17T00:05:32.450Z,11.40
2023-05-17T00:08:02.610Z,11.27
2023-05-17T00:10:30.949Z,11.31
2023-05-17T00:13:00.411Z,11.34
2023-05-17T00:15:34.417Z,11.27
2023-05-17T00:18:03.831Z,11.26
2023-05-17T00:20:32.011Z,11.30
2023-05-17T00:23:00.960Z,11.28
2023-05-17T00:25:31.722Z,11.29
2023-05-17T00:28:01.042Z,11.35
2023-05-17T00:30:30.650Z,11.24
2023-05-17T00:33:03.651Z,11.26
2023-05-17T00:35:31.662Z,11.24
2023-05-17T00:38:07.722Z,11.14
2023-05-17T00:40:35.713Z,11.12
2023-05-17T00:43:05.301Z,11.17
2023-05-17T00:45:33.353Z,11.26
2023-05-17T00:48:04.945Z,11.28
2023-05-17T00:50:33.608Z,11.18
2023-05-17T00:53:04.635Z,11.25
2023-05-17T00:55:38.214Z,11.22
2023-05-17T00:58:09.001Z,11.21
2023-05-17T01:00:36.971Z,11.09
2023-05-17T01:03:13.610Z,11.14
2023-05-17T01:05:42.008Z,11.19
2023-05-17T01:08:10.062Z,11.18
2023-05-17T01:10:47.837Z,11.22
2023-05-17T01:13:24.052Z,11.19
2023-05-17T01:15:58.409Z,11.13
2023-05-17T01:18:36.927Z,11.16
2023-05-17T01:21:19.369Z,11.14
2023-05-17T01:24:04.764Z,11.23
2023-05-17T01:26:40.132Z,11.29
2023-05-17T01:29:13.466Z,11.14
2023-05-17T01:31:44.900Z,11.24
2023-05-17T01:34:14.774Z,11.12
2023-05-17T01:36:43.375Z,11.20
2023-05-17T01:39:11.816Z,11.26
2023-05-17T01:41:43.366Z,11.12
2023-05-17T01:44:17.808Z,11.21
2023-05-17T01:46:48.051Z,11.13
2023-05-17T01:49:22.933Z,11.15
2023-05-17T01:51:58.971Z,11.06
2023-05-17T01:54:34.189Z,11.12
2023-05-17T01:57:07.881Z,11.19
2023-05-17T01:59:39.493Z,11.12
2023-05-17T02:02:10.410Z,11.06
2023-05-17T02:04:38.772Z,10.92
2023-05-17T02:07:06.945Z,10.85
2023-05-17T02:09:34.951Z,10.84
2023-05-17T02:12:07.568Z,10.74
2023-05-17T02:14:35.672Z,10.94
2023-05-17T02:17:05.994Z,10.87
2023-05-17T02:19:38.354Z,10.98
2023-05-17T02:22:06.514Z,10.89
2023-05-17T02:24:34.620Z,10.90
2023-05-17T02:27:04.744Z,10.78
2023-05-17T02:29:32.729Z,10.88
2023-05-17T02:32:00.897Z,10.89
2023-05-17T02:34:31.794Z,11.02
2023-05-17T02:37:00.922Z,11.04
2023-05-17T02:39:30.549Z,11.10
2023-05-17T02:41:58.540Z,10.96
2023-05-17T02:44:27.940Z,10.95
2023-05-17T02:46:56.168Z,10.89
2023-05-17T02:49:24.108Z,10.89
2023-05-17T02:51:54.369Z,10.91
2023-05-17T02:54:22.460Z,10.89
2023-05-17T02:56:50.603Z,10.99
2023-05-17T02:59:18.777Z,11.19
2023-05-17T03:01:49.824Z,11.14
2023-05-17T03:04:20.421Z,11.20
2023-05-17T03:06:48.481Z,10.99
2023-05-17T03:09:16.459Z,11.01
2023-05-17T03:11:44.528Z,11.04
2023-05-17T03:14:12.490Z,11.24
2023-05-17T03:16:40.691Z,11.22
2023-05-17T03:19:13.238Z,11.14
2023-05-17T03:21:41.433Z,11.08
2023-05-17T03:24:09.891Z,11.20
2023-05-17T03:26:39.184Z,11.14
2023-05-17T03:29:07.372Z,11.26
2023-05-17T03:31:37.349Z,11.05
2023-05-17T03:34:06.711Z,11.18
2023-05-17T03:36:39.657Z,11.20
2023-05-17T03:39:08.070Z,11.22
2023-05-17T03:41:36.186Z,11.31
2023-05-17T03:44:04.306Z,11.32
2023-05-17T03:46:35.385Z,11.37
2023-05-17T03:49:03.364Z,11.34
2023-05-17T03:51:31.619Z,11.41
2023-05-17T03:54:02.837Z,11.35
2023-05-17T03:56:31.405Z,11.35
2023-05-17T03:58:59.589Z,11.48
2023-05-17T04:01:27.621Z,11.56
2023-05-17T04:03:55.745Z,11.55
2023-05-17T04:06:23.907Z,11.68
2023-05-17T04:08:51.915Z,11.56
2023-05-17T04:11:24.095Z,11.56
2023-05-17T04:13:52.109Z,11.84
2023-05-17T04:16:20.231Z,12.02
2023-05-17T04:18:52.791Z,12.20
2023-05-17T04:21:23.470Z,12.24
2023-05-17T04:23:51.593Z,12.07
2023-05-17T04:26:20.665Z,12.08
2023-05-17T04:28:50.453Z,12.01
2023-05-17T04:31:19.023Z,11.97
2023-05-17T04:33:47.194Z,11.53
2023-05-17T04:36:16.012Z,11.86
2023-05-17T04:38:44.179Z,11.95
2023-05-17T04:41:12.155Z,11.98
2023-05-17T04:43:40.502Z,11.85
2023-05-17T04:46:10.101Z,11.99
2023-05-17T04:48:39.305Z,12.03
2023-05-17T04:51:12.445Z,12.13
2023-05-17T04:53:40.649Z,12.11
2023-05-17T04:56:08.901Z,12.29
2023-05-17T04:58:38.053Z,12.33
2023-05-17T05:01:07.144Z,12.40
2023-05-17T05:03:37.709Z,12.50
2023-05-17T05:06:06.061Z,12.47
2023-05-17T05:08:34.609Z,12.55
2023-05-17T05:11:02.929Z,12.57
2023-05-17T05:13:31.108Z,12.85
2023-05-17T05:16:01.847Z,12.43
2023-05-17T05:18:29.984Z,12.29
2023-05-17T05:21:02.445Z,12.10
2023-05-17T05:23:33.253Z,11.86
2023-05-17T05:26:01.501Z,11.69
2023-05-17T05:28:29.952Z,11.63
2023-05-17T05:31:01.458Z,11.60
2023-05-17T05:33:29.638Z,11.24
2023-05-17T05:35:59.099Z,11.01
2023-05-17T05:38:27.514Z,10.77
2023-05-17T05:40:55.489Z,10.85
2023-05-17T05:43:23.523Z,10.81
2023-05-17T05:45:51.656Z,10.74
2023-05-17T05:48:19.779Z,10.77
2023-05-17T05:50:47.960Z,10.84
2023-05-17T05:53:19.924Z,10.92
2023-05-17T05:55:49.493Z,10.88
2023-05-17T05:58:17.684Z,10.90
2023-05-17T06:00:45.908Z,10.86
2023-05-17T06:03:14.290Z,11.01
2023-05-17T06:05:42.689Z,11.14
2023-05-17T06:08:10.806Z,10.96
2023-05-17T06:10:40.189Z,11.01
2023-05-17T06:13:08.272Z,10.87
2023-05-17T06:15:36.867Z,11.12
2023-05-17T06:18:05.194Z,11.14
2023-05-17T06:20:33.361Z,11.22
2023-05-17T06:23:02.048Z,11.45
2023-05-17T06:25:30.172Z,11.60
2023-05-17T06:27:59.628Z,11.61
2023-05-17T06:30:28.087Z,11.54
2023-05-17T06:32:56.511Z,11.61
2023-05-17T06:35:24.495Z,12.00
2023-05-17T06:37:55.652Z,12.31
2023-05-17T06:40:23.962Z,12.29
2023-05-17T06:42:52.090Z,12.33
2023-05-17T06:45:21.896Z,12.45
2023-05-17T06:47:49.974Z,12.57
2023-05-17T06:50:18.196Z,12.59
2023-05-17T06:52:46.997Z,12.69
2023-05-17T06:55:15.379Z,13.17
2023-05-17T06:57:43.331Z,13.28
2023-05-17T07:00:13.135Z,13.75
2023-05-17T07:02:42.668Z,13.89
2023-05-17T07:05:11.080Z,13.65
2023-05-17T07:07:39.414Z,13.64
2023-05-17T07:10:13.227Z,14.10
2023-05-17T07:12:41.432Z,14.26
2023-05-17T07:15:10.185Z,14.53
2023-05-17T07:17:38.214Z,14.45
2023-05-17T07:20:09.194Z,14.37
2023-05-17T07:22:38.351Z,14.96
2023-05-17T07:25:07.725Z,15.05
2023-05-17T07:27:38.526Z,15.12
2023-05-17T07:30:10.464Z,15.14
2023-05-17T07:32:46.425Z,14.25
2023-05-17T07:35:16.167Z,13.81
2023-05-17T07:37:44.415Z,13.01
2023-05-17T07:40:13.341Z,12.52
2023-05-17T07:42:41.343Z,11.89
2023-05-17T07:45:10.779Z,11.87
2023-05-17T07:47:41.114Z,11.48
2023-05-17T07:50:09.794Z,11.47
2023-05-17T07:52:39.236Z,11.74
2023-05-17T07:55:08.334Z,11.46
2023-05-17T07:57:36.470Z,11.29
2023-05-17T08:00:09.160Z,10.89
2023-05-17T08:02:37.180Z,10.44
2023-05-17T08:05:09.894Z,10.05
2023-05-17T08:07:41.982Z,10.49
2023-05-17T08:10:10.725Z,10.18
2023-05-17T08:12:38.730Z,10.29
2023-05-17T08:15:09.993Z,10.24
2023-05-17T08:17:38.131Z,10.53
2023-05-17T08:20:08.080Z,10.41
2023-05-17T08:22:36.605Z,10.25
2023-05-17T08:25:06.672Z,10.24
2023-05-17T08:27:37.816Z,9.86
2023-05-17T08:30:09.217Z,9.69
2023-05-17T08:32:39.835Z,9.23
2023-05-17T08:35:08.662Z,9.29
2023-05-17T08:37:36.937Z,9.05
2023-05-17T08:40:07.810Z,9.04
2023-05-17T08:42:36.380Z,8.89
2023-05-17T08:45:06.061Z,9.14
2023-05-17T08:47:34.465Z,9.30
2023-05-17T08:50:05.979Z,9.29
2023-05-17T08:52:36.449Z,9.17
2023-05-17T08:55:06.211Z,9.08
2023-05-17T08:57:37.799Z,8.98
2023-05-17T09:00:12.580Z,9.01
2023-05-17T09:02:41.000Z,8.67
2023-05-17T09:05:10.863Z,8.76
2023-05-17T09:07:39.133Z,8.76
2023-05-17T09:10:08.145Z,8.47
2023-05-17T09:12:37.594Z,8.43
2023-05-17T09:15:16.317Z,8.11
2023-05-17T09:17:44.712Z,8.08
2023-05-17T09:20:14.692Z,8.01
2023-05-17T09:22:44.280Z,8.05
2023-05-17T09:25:12.742Z,7.77
2023-05-17T09:27:42.376Z,7.52
2023-05-17T09:30:12.756Z,7.70
2023-05-17T09:32:45.113Z,7.46
2023-05-17T09:35:16.370Z,7.20
2023-05-17T09:37:47.256Z,7.31
2023-05-17T09:40:24.461Z,7.20
2023-05-17T09:42:54.194Z,7.01
2023-05-17T09:45:25.579Z,6.68
2023-05-17T09:47:56.140Z,6.78
2023-05-17T09:50:26.127Z,6.75
2023-05-17T09:52:54.528Z,6.56
2023-05-17T09:55:28.084Z,6.49
2023-05-17T09:58:04.625Z,6.46
2023-05-17T10:00:33.807Z,6.38
2023-05-17T10:03:04.287Z,6.17
2023-05-17T10:05:35.536Z,6.02
2023-05-17T10:08:05.983Z,5.96
2023-05-17T10:10:34.278Z,5.73
2023-05-17T10:13:07.653Z,5.57
2023-05-17T10:15:40.427Z,5.68
2023-05-17T10:18:10.446Z,5.56
2023-05-17T10:20:39.406Z,5.39
2023-05-17T10:23:08.627Z,5.25
2023-05-17T10:25:37.053Z,5.21
2023-05-17T10:28:08.159Z,5.27
2023-05-17T10:30:37.591Z,5.30
2023-05-17T10:33:06.260Z,5.16
2023-05-17T10:35:35.976Z,4.95
2023-05-17T10:38:04.212Z,5.18
2023-05-17T10:40:36.043Z,4.88
2023-05-17T10:43:04.882Z,5.17
2023-05-17T10:45:35.182Z,5.12
2023-05-17T10:48:06.855Z,5.11
2023-05-17T10:50:47.454Z,5.08
2023-05-17T10:53:22.320Z,4.97
2023-05-17T10:55:52.763Z,4.93
2023-05-17T10:58:25.921Z,4.94
2023-05-17T11:00:56.256Z,4.99
2023-05-17T11:03:28.833Z,5.03
2023-05-17T11:06:24.470Z,4.82
2023-05-17T11:09:14.958Z,5.02
2023-05-17T11:12:08.165Z,5.09
2023-05-17T11:14:48.882Z,5.14
2023-05-17T11:17:20.169Z,5.17
2023-05-17T11:19:57.956Z,5.25
2023-05-17T11:22:26.831Z,5.40
2023-05-17T11:24:57.813Z,5.56
2023-05-17T11:27:28.930Z,5.17
2023-05-17T11:29:57.614Z,5.62
2023-05-17T11:32:29.801Z,5.74
2023-05-17T11:35:01.208Z,5.49
2023-05-17T11:37:30.021Z,5.14
2023-05-17T11:40:06.883Z,5.34
2023-05-17T11:42:37.374Z,5.45
2023-05-17T11:45:06.596Z,5.36
2023-05-17T11:47:40.481Z,5.20
2023-05-17T11:50:09.732Z,5.17
2023-05-17T11:52:38.129Z,5.37
2023-05-17T11:55:07.435Z,5.26
2023-05-17T11:57:38.294Z,5.04
2023-05-17T12:00:11.673Z,5.16
2023-05-17T12:02:44.268Z,5.20
2023-05-17T12:05:12.504Z,5.04
2023-05-17T12:07:41.006Z,4.98
2023-05-17T12:10:14.367Z,5.03
2023-05-17T12:12:43.027Z,4.93
2023-05-17T12:15:18.862Z,4.88
2023-05-17T12:17:51.729Z,4.95
2023-05-17T12:20:20.310Z,5.04
2023-05-17T12:22:54.970Z,5.00
2023-05-17T12:25:28.368Z,4.93
2023-05-17T12:28:14.448Z,5.22
2023-05-17T12:30:42.729Z,5.28
2023-05-17T12:33:12.486Z,5.10
2023-05-17T12:35:40.630Z,4.96
2023-05-17T12:38:08.876Z,5.06
2023-05-17T12:40:37.204Z,4.98
2023-05-17T12:43:05.684Z,5.16
2023-05-17T12:45:35.827Z,5.20
2023-05-17T12:48:04.051Z,5.27
2023-05-17T12:50:34.189Z,5.22
2023-05-17T12:53:09.316Z,5.30
2023-05-17T12:55:38.110Z,5.30
2023-05-17T12:58:08.868Z,5.09
2023-05-17T13:00:37.040Z,4.68
2023-05-17T13:03:11.000Z,5.03
2023-05-17T13:05:43.655Z,4.76
2023-05-17T13:08:20.856Z,4.88
2023-05-17T13:10:48.960Z,4.81
2023-05-17T13:13:20.339Z,4.65
2023-05-17T13:15:48.589Z,4.83
2023-05-17T13:18:18.088Z,4.82
2023-05-17T13:20:47.528Z,4.67
2023-05-17T13:23:26.328Z,4.70
2023-05-17T13:25:54.602Z,4.76
2023-05-17T13:28:24.899Z,4.47
2023-05-17T13:30:52.959Z,4.47
2023-05-17T13:33:21.203Z,4.55
2023-05-17T13:35:50.736Z,4.73
2023-05-17T13:38:18.782Z,4.69
2023-05-17T13:40:46.916Z,4.57
2023-05-17T13:43:15.169Z,5.08
2023-05-17T13:45:45.985Z,5.35
2023-05-17T13:48:14.033Z,4.90
2023-05-17T13:50:42.395Z,4.89
2023-05-17T13:53:12.108Z,5.22
2023-05-17T13:55:40.207Z,5.30
2023-05-17T13:58:08.332Z,5.63
2023-05-17T14:00:36.405Z,5.96
2023-05-17T14:03:04.786Z,6.17
2023-05-17T14:05:33.531Z,5.87
2023-05-17T14:08:01.624Z,6.22
2023-05-17T14:10:31.451Z,6.73
2023-05-17T14:12:59.617Z,6.76
2023-05-17T14:15:28.666Z,6.73
2023-05-17T14:17:57.073Z,6.22
2023-05-17T14:20:25.590Z,5.94
2023-05-17T14:22:53.656Z,5.89
2023-05-17T14:25:21.737Z,5.69
2023-05-17T14:27:51.436Z,5.72
2023-05-17T14:30:19.482Z,5.75
2023-05-17T14:32:47.856Z,5.80
2023-05-17T14:35:17.215Z,5.76
2023-05-17T14:37:45.439Z,5.97
2023-05-17T14:40:14.232Z,5.79
2023-05-17T14:42:43.307Z,5.17
2023-05-17T14:45:12.776Z,5.49
2023-05-17T14:47:40.810Z,5.36
2023-05-17T14:50:09.368Z,5.44
2023-05-17T14:52:37.364Z,5.42
2023-05-17T14:55:06.083Z,5.46
2023-05-17T14:57:34.739Z,5.61
2023-05-17T15:00:03.026Z,5.67
2023-05-17T15:02:32.349Z,5.57
2023-05-17T15:05:03.518Z,5.47
2023-05-17T15:07:31.612Z,5.37
2023-05-17T15:09:59.673Z,5.45
2023-05-17T15:12:27.804Z,5.51
2023-05-17T15:14:55.968Z,5.55
2023-05-17T15:17:23.969Z,5.46
2023-05-17T15:19:53.754Z,5.46
2023-05-17T15:22:22.116Z,5.44
2023-05-17T15:24:50.103Z,5.61
2023-05-17T15:27:20.952Z,5.61
2023-05-17T15:29:48.946Z,5.61
2023-05-17T15:32:20.141Z,5.85
2023-05-17T15:34:48.263Z,6.02
2023-05-17T15:37:17.999Z,6.25
2023-05-17T15:39:46.577Z,6.45
2023-05-17T15:42:17.388Z,6.57
2023-05-17T15:44:45.392Z,6.50
2023-05-17T15:47:16.610Z,6.44
2023-05-17T15:49:44.668Z,6.38
2023-05-17T15:52:12.832Z,6.50
2023-05-17T15:54:44.281Z,6.81
2023-05-17T15:57:12.212Z,6.90
2023-05-17T15:59:42.309Z,6.62
2023-05-17T16:02:10.260Z,6.63
2023-05-17T16:04:38.431Z,6.72
2023-05-17T16:07:06.775Z,6.76
2023-05-17T16:09:34.737Z,7.12
2023-05-17T16:12:11.832Z,7.12
2023-05-17T16:14:40.847Z,7.25
2023-05-17T16:17:08.821Z,7.35
2023-05-17T16:19:37.173Z,7.64
2023-05-17T16:22:05.729Z,7.26
2023-05-17T16:24:36.544Z,7.43
2023-05-17T16:27:08.587Z,7.91
2023-05-17T16:29:40.150Z,8.06
2023-05-17T16:32:08.807Z,8.24
2023-05-17T16:34:37.337Z,8.46
2023-05-17T16:37:05.501Z,9.19
2023-05-17T16:39:34.117Z,9.29
2023-05-17T16:42:03.539Z,9.29
2023-05-17T16:44:32.970Z,9.26
2023-05-17T16:47:01.934Z,8.95
2023-05-17T16:49:30.489Z,8.48
2023-05-17T16:51:58.448Z,8.83
2023-05-17T16:54:28.256Z,9.12
2023-05-17T16:56:56.239Z,8.86
2023-05-17T16:59:24.213Z,8.82
2023-05-17T17:01:53.905Z,8.20
2023-05-17T17:04:22.077Z,8.05
2023-05-17T17:06:50.116Z,8.00
2023-05-17T17:09:18.693Z,7.93
2023-05-17T17:11:46.671Z,7.72
2023-05-17T17:14:14.999Z,7.71
2023-05-17T17:16:43.395Z,7.84
2023-05-17T17:19:13.023Z,7.95
2023-05-17T17:21:42.362Z,7.66
2023-05-17T17:24:10.610Z,7.61
2023-05-17T17:26:38.571Z,7.53
2023-05-17T17:29:06.625Z,7.59
2023-05-17T17:31:34.886Z,7.54
2023-05-17T17:34:03.942Z,7.52
2023-05-17T17:36:33.396Z,7.66
2023-05-17T17:39:01.507Z,7.60
2023-05-17T17:41:29.459Z,7.52
2023-05-17T17:43:57.497Z,7.38
2023-05-17T17:46:26.474Z,7.45
2023-05-17T17:48:56.660Z,7.45
2023-05-17T17:51:24.712Z,7.50
2023-05-17T17:53:54.293Z,7.44
2023-05-17T17:56:23.921Z,7.58
2023-05-17T17:58:53.669Z,7.35
2023-05-17T18:01:27.472Z,7.46
2023-05-17T18:03:58.817Z,7.58
2023-05-17T18:06:26.906Z,7.55
2023-05-17T18:08:57.646Z,7.59
2023-05-17T18:11:26.228Z,7.64
2023-05-17T18:13:54.255Z,7.41
2023-05-17T18:16:22.235Z,7.18
2023-05-17T18:18:50.219Z,7.27
2023-05-17T18:21:18.258Z,7.22
2023-05-17T18:23:46.358Z,7.12
2023-05-17T18:26:15.734Z,6.97
2023-05-17T18:28:44.985Z,7.05
2023-05-17T18:31:15.420Z,6.88
2023-05-17T18:33:43.189Z,6.89
2023-05-17T18:36:11.324Z,6.90
2023-05-17T18:38:39.467Z,6.84
2023-05-17T18:41:07.490Z,6.89
2023-05-17T18:43:36.860Z,6.93
2023-05-17T18:46:04.775Z,7.14
2023-05-17T18:48:36.209Z,7.09
2023-05-17T18:51:04.827Z,6.86
2023-05-17T18:53:32.799Z,6.93
2023-05-17T18:56:02.546Z,6.99
2023-05-17T18:58:30.995Z,6.63
2023-05-17T19:01:02.575Z,6.71
2023-05-17T19:03:31.015Z,6.79
2023-05-17T19:05:59.191Z,6.79
2023-05-17T19:08:27.356Z,6.77
2023-05-17T19:10:55.753Z,6.37
2023-05-17T19:13:23.791Z,6.79
2023-05-17T19:15:52.713Z,6.51
2023-05-17T19:18:22.414Z,6.71
2023-05-17T19:20:50.470Z,6.57
2023-05-17T19:23:18.499Z,6.44
2023-05-17T19:25:46.567Z,6.58
2023-05-17T19:28:16.705Z,6.26
2023-05-17T19:30:44.755Z,6.25
2023-05-17T19:33:13.105Z,6.33
2023-05-17T19:35:42.607Z,5.97
2023-05-17T19:38:11.269Z,6.30
2023-05-17T19:40:40.799Z,5.99
2023-05-17T19:43:08.973Z,6.15
2023-05-17T19:45:37.221Z,6.24
2023-05-17T19:48:08.017Z,6.03
2023-05-17T19:50:36.852Z,5.78
2023-05-17T19:53:06.454Z,5.80
2023-05-17T19:55:34.776Z,5.77
2023-05-17T19:58:02.798Z,5.67
2023-05-17T20:00:32.664Z,5.94
2023-05-17T20:03:01.305Z,6.12
2023-05-17T20:05:29.762Z,6.01
2023-05-17T20:07:57.807Z,6.06
2023-05-17T20:10:29.783Z,5.98
2023-05-17T20:12:58.090Z,5.67
2023-05-17T20:15:26.380Z,5.64
2023-05-17T20:17:56.277Z,5.52
2023-05-17T20:20:25.114Z,5.42
2023-05-17T20:22:53.220Z,5.59
2023-05-17T20:25:21.837Z,5.39
2023-05-17T20:27:51.213Z,5.12
2023-05-17T20:30:19.311Z,4.98
2023-05-17T20:32:47.362Z,5.02
2023-05-17T20:35:15.526Z,5.24
2023-05-17T20:37:43.567Z,4.95
2023-05-17T20:40:12.336Z,4.73
2023-05-17T20:42:40.402Z,5.01
2023-05-17T20:45:12.083Z,5.21
2023-05-17T20:47:42.095Z,5.33
2023-05-17T20:50:12.192Z,5.08
2023-05-17T20:52:40.233Z,5.04
2023-05-17T20:55:10.415Z,5.30
2023-05-17T20:57:38.454Z,5.17
2023-05-17T21:00:08.831Z,5.03
2023-05-17T21:02:39.089Z,5.10
2023-05-17T21:05:09.135Z,4.96
2023-05-17T21:07:39.260Z,4.98
2023-05-17T21:10:08.030Z,5.03
2023-05-17T21:12:36.383Z,4.87
2023-05-17T21:15:16.449Z,4.52
2023-05-17T21:17:47.132Z,4.63
2023-05-17T21:20:15.681Z,4.75
2023-05-17T21:22:44.361Z,4.55
2023-05-17T21:25:12.490Z,4.43
2023-05-17T21:27:40.622Z,4.24
2023-05-17T21:30:09.834Z,4.16
2023-05-17T21:32:37.987Z,4.17
2023-05-17T21:35:08.180Z,4.12
2023-05-17T21:37:37.088Z,4.17
2023-05-17T21:40:05.999Z,4.55
2023-05-17T21:42:34.221Z,4.46
2023-05-17T21:45:02.227Z,4.45
2023-05-17T21:47:30.304Z,4.40
2023-05-17T21:49:58.367Z,4.33
2023-05-17T21:52:27.623Z,4.40
2023-05-17T21:54:55.854Z,4.18
2023-05-17T21:57:23.844Z,4.35
2023-05-17T21:59:52.437Z,4.22
2023-05-17T22:02:20.789Z,4.04
2023-05-17T22:04:48.901Z,4.22
2023-05-17T22:07:16.995Z,4.31
2023-05-17T22:09:48.235Z,4.37
2023-05-17T22:12:16.185Z,4.73
2023-05-17T22:14:46.554Z,4.67
2023-05-17T22:17:19.095Z,4.79
2023-05-17T22:19:47.426Z,4.66
2023-05-17T22:22:18.533Z,4.79
2023-05-17T22:24:48.112Z,5.05
2023-05-17T22:27:16.013Z,4.82
2023-05-17T22:29:44.200Z,4.59
2023-05-17T22:32:13.511Z,4.53
2023-05-17T22:34:42.447Z,4.33
2023-05-17T22:37:12.001Z,4.32
2023-05-17T22:39:40.662Z,4.31
2023-05-17T22:42:10.438Z,3.77
2023-05-17T22:44:38.718Z,3.46
2023-05-17T22:47:08.799Z,3.65
2023-05-17T22:49:36.886Z,3.19
2023-05-17T22:52:06.892Z,3.42
2023-05-17T22:54:35.362Z,3.34
2023-05-17T22:57:04.343Z,3.39
2023-05-17T22:59:34.032Z,3.34
2023-05-17T23:02:02.755Z,3.38
2023-05-17T23:04:31.508Z,3.29
2023-05-17T23:07:03.653Z,3.25
2023-05-17T23:09:33.733Z,2.90
2023-05-17T23:12:05.725Z,3.21
2023-05-17T23:14:38.725Z,3.45
2023-05-17T23:17:11.930Z,3.52
2023-05-17T23:19:40.705Z,3.41
2023-05-17T23:22:08.897Z,3.53
2023-05-17T23:24:39.032Z,3.16
2023-05-17T23:27:10.358Z,2.88
2023-05-17T23:29:41.488Z,3.03
2023-05-17T23:32:09.652Z,2.87
2023-05-17T23:34:37.704Z,3.25
2023-05-17T23:37:06.168Z,3.12
2023-05-17T23:39:34.125Z,3.32
2023-05-17T23:42:02.199Z,3.59
2023-05-17T23:44:30.690Z,3.89
2023-05-17T23:47:06.662Z,4.00
2023-05-17T23:49:34.765Z,3.76
2023-05-17T23:52:03.109Z,3.91
2023-05-17T23:54:31.301Z,3.42
2023-05-17T23:56:59.340Z,4.00
2023-05-17T23:59:27.371Z,3.71
